Time;durP1;ratioP1;P1;durP2;ratioP2;P2;SDS_P1;SDS_P2;PMS_P1;PMS_P2;Temp;Humidity;BMP_temperature;BMP_pressure;BME280_temperature;BME280_humidity;BME280_pressure;Samples;Min_cycle;Max_cycle;Signal;HPM_P1;HPM_P2
2023/01/05 00:01:14;;;;;;;40.70;26.00;;;;;;;;;;10309892;28;20045;-63
2023/01/05 00:06:13;;;;;;;39.63;26.70;;;;;;;;;;10309377;28;20068;-62
2023/01/05 00:27:01;;;;;;;41.72;27.25;;;;;;;;;;10294262;28;20160;-63
2023/01/05 00:32:01;;;;;;;39.22;26.10;;;;;;;;;;10306693;28;20048;-63
2023/01/05 00:36:59;;;;;;;49.72;27.58;;;;;;;;;;10308296;28;20052;-63
2023/01/05 00:41:57;;;;;;;59.15;27.05;;;;;;;;;;10308782;28;20102;-62
2023/01/05 00:46:55;;;;;;;54.50;26.80;;;;;;;;;;10307521;28;20083;-62
2023/01/05 00:51:55;;;;;;;68.63;25.52;;;;;;;;;;10307403;28;20423;-62
2023/01/05 00:56:53;;;;;;;49.20;25.90;;;;;;;;;;10307357;28;20387;-63
2023/01/05 01:01:53;;;;;;;92.60;27.70;;;;;;;;;;10305055;28;20454;-62
2023/01/05 01:06:53;;;;;;;60.40;27.17;;;;;;;;;;10305529;28;20056;-62
2023/01/05 01:11:53;;;;;;;69.72;26.17;;;;;;;;;;10307248;28;20064;-63
2023/01/05 01:16:51;;;;;;;54.65;25.88;;;;;;;;;;10304757;28;20045;-62
2023/01/05 01:21:49;;;;;;;57.92;24.75;;;;;;;;;;10304352;28;20045;-62
2023/01/05 01:26:48;;;;;;;74.38;26.00;;;;;;;;;;10303987;28;20087;-62
2023/01/05 01:31:48;;;;;;;41.53;21.55;;;;;;;;;;10279019;28;20071;-62
2023/01/05 01:36:46;;;;;;;59.72;28.20;;;;;;;;;;10304490;28;20067;-63
2023/01/05 01:41:48;;;;;;;68.63;24.58;;;;;;;;;;10302982;28;20044;-62
2023/01/05 01:46:50;;;;;;;49.03;22.23;;;;;;;;;;10290778;28;20478;-63
2023/01/05 01:51:49;;;;;;;53.50;26.30;;;;;;;;;;10303243;28;20071;-63
2023/01/05 01:56:49;;;;;;;69.60;28.58;;;;;;;;;;10306458;28;20104;-63
2023/01/05 02:01:51;;;;;;;65.25;25.80;;;;;;;;;;10303809;28;20067;-62
2023/01/05 02:06:49;;;;;;;45.05;22.92;;;;;;;;;;10303027;28;20103;-63
2023/01/05 02:11:52;;;;;;;70.10;24.63;;;;;;;;;;10306206;28;20401;-63
2023/01/05 02:17:00;;;;;;;41.17;22.15;;;;;;;;;;10305889;28;20096;-63
2023/01/05 02:22:07;;;;;;;43.85;22.15;;;;;;;;;;10303400;28;20358;-63
2023/01/05 02:27:28;;;;;;;40.53;23.33;;;;;;;;;;10303639;28;20419;-63
2023/01/05 02:32:29;;;;;;;41.63;22.80;;;;;;;;;;10303251;28;20128;-63
2023/01/05 02:37:32;;;;;;;58.72;28.25;;;;;;;;;;10305179;28;20040;-63
2023/01/05 02:42:32;;;;;;;44.45;25.25;;;;;;;;;;10293440;28;20037;-63
2023/01/05 02:47:37;;;;;;;49.75;24.85;;;;;;;;;;10298581;28;20532;-63
2023/01/05 02:52:40;;;;;;;41.55;26.23;;;;;;;;;;10304638;28;20297;-63
2023/01/05 02:57:50;;;;;;;42.85;24.77;;;;;;;;;;10310132;28;20048;-63
2023/01/05 03:02:54;;;;;;;45.05;24.23;;;;;;;;;;10309505;28;20104;-62
2023/01/05 03:08:05;;;;;;;40.55;24.25;;;;;;;;;;10311734;28;20485;-63
2023/01/05 03:18:26;;;;;;;42.65;24.02;;;;;;;;;;10310795;28;19936;-62
2023/01/05 03:39:25;;;;;;;40.20;24.23;;;;;;;;;;10310347;28;20458;-63
2023/01/05 03:44:24;;;;;;;37.13;24.30;;;;;;;;;;10308102;28;20064;-63
2023/01/05 03:49:25;;;;;;;34.83;23.73;;;;;;;;;;10308450;28;20102;-63
2023/01/05 03:54:23;;;;;;;39.03;23.80;;;;;;;;;;10310196;28;20079;-62
2023/01/05 03:59:21;;;;;;;35.03;22.63;;;;;;;;;;10306689;28;20048;-62
2023/01/05 04:04:21;;;;;;;36.55;24.45;;;;;;;;;;10289267;28;20048;-62
2023/01/05 04:09:21;;;;;;;37.13;23.10;;;;;;;;;;10306762;28;20049;-62
2023/01/05 04:14:19;;;;;;;37.10;22.95;;;;;;;;;;10306975;28;20769;-62
2023/01/05 04:19:18;;;;;;;35.90;23.15;;;;;;;;;;10307405;28;20189;-63
2023/01/05 04:24:21;;;;;;;34.50;22.92;;;;;;;;;;10305896;28;20108;-63
2023/01/05 04:29:20;;;;;;;37.33;23.63;;;;;;;;;;10308325;28;20099;-63
2023/01/05 04:34:20;;;;;;;39.28;25.90;;;;;;;;;;10291409;28;20072;-62
2023/01/05 04:39:22;;;;;;;39.60;25.98;;;;;;;;;;10306060;28;20189;-63
2023/01/05 04:44:21;;;;;;;47.85;29.30;;;;;;;;;;10307577;28;20087;-63
2023/01/05 04:49:20;;;;;;;50.85;33.42;;;;;;;;;;10305106;28;20126;-63
2023/01/05 04:54:20;;;;;;;37.22;24.40;;;;;;;;;;10288938;28;20052;-62
2023/01/05 04:59:20;;;;;;;46.83;29.83;;;;;;;;;;10306158;28;20053;-62
2023/01/05 05:04:19;;;;;;;40.83;27.67;;;;;;;;;;10294519;28;20048;-62
2023/01/05 05:09:19;;;;;;;41.00;26.15;;;;;;;;;;10304411;28;20071;-62
2023/01/05 05:14:20;;;;;;;34.50;26.55;;;;;;;;;;10288208;28;20366;-63
2023/01/05 05:19:18;;;;;;;51.17;34.08;;;;;;;;;;10304896;28;20066;-62
2023/01/05 05:24:18;;;;;;;38.17;24.83;;;;;;;;;;10292871;28;20148;-63
2023/01/05 05:29:17;;;;;;;37.88;25.35;;;;;;;;;;10291045;28;20076;-63
2023/01/05 05:34:17;;;;;;;37.78;24.90;;;;;;;;;;10306326;28;20083;-62
2023/01/05 05:39:16;;;;;;;36.17;24.88;;;;;;;;;;10276797;28;20371;-64
2023/01/05 05:44:14;;;;;;;35.78;24.52;;;;;;;;;;10285909;28;20041;-62
2023/01/05 05:49:12;;;;;;;35.00;25.13;;;;;;;;;;10273536;28;20072;-62
2023/01/05 05:54:11;;;;;;;41.40;27.65;;;;;;;;;;10259398;28;20095;-62
2023/01/05 05:59:10;;;;;;;35.17;23.88;;;;;;;;;;10275664;28;20358;-63
2023/01/05 06:04:08;;;;;;;31.92;22.70;;;;;;;;;;10294253;28;20130;-63
2023/01/05 06:09:06;;;;;;;33.40;22.63;;;;;;;;;;10283653;28;20075;-63
2023/01/05 06:14:06;;;;;;;32.70;23.88;;;;;;;;;;10300510;28;20049;-63
2023/01/05 06:19:06;;;;;;;31.20;21.33;;;;;;;;;;10298412;28;20051;-63
2023/01/05 06:24:04;;;;;;;32.45;23.13;;;;;;;;;;10303829;28;20068;-62
2023/01/05 06:29:03;;;;;;;36.42;25.92;;;;;;;;;;10311059;28;20098;-63
2023/01/05 06:34:02;;;;;;;34.13;23.73;;;;;;;;;;10313982;28;20505;-63
2023/01/05 06:39:00;;;;;;;33.63;25.20;;;;;;;;;;10301875;28;20064;-63
2023/01/05 06:43:58;;;;;;;39.35;25.38;;;;;;;;;;10306930;28;20435;-64
2023/01/05 06:48:57;;;;;;;36.17;25.27;;;;;;;;;;10313076;28;20076;-63
2023/01/05 06:53:56;;;;;;;34.28;26.00;;;;;;;;;;10312789;28;20049;-64
2023/01/05 06:58:54;;;;;;;37.75;28.88;;;;;;;;;;10312371;28;20045;-62
2023/01/05 07:03:53;;;;;;;34.90;26.42;;;;;;;;;;10312512;28;20066;-62
2023/01/05 07:08:51;;;;;;;35.63;27.60;;;;;;;;;;10313187;28;20455;-63
2023/01/05 07:13:51;;;;;;;38.03;27.63;;;;;;;;;;10311543;28;20470;-63
2023/01/05 07:18:49;;;;;;;39.05;30.55;;;;;;;;;;10309272;28;20052;-62
2023/01/05 07:23:47;;;;;;;34.13;27.83;;;;;;;;;;10310604;28;20102;-62
2023/01/05 07:28:45;;;;;;;35.92;27.35;;;;;;;;;;10294790;28;20075;-63
2023/01/05 07:33:45;;;;;;;37.58;27.27;;;;;;;;;;10310609;28;20182;-62
2023/01/05 07:38:43;;;;;;;36.10;27.02;;;;;;;;;;10291823;28;20091;-62
2023/01/05 07:43:41;;;;;;;34.90;25.95;;;;;;;;;;10301971;28;20082;-62
2023/01/05 07:48:40;;;;;;;36.85;27.95;;;;;;;;;;10296194;28;20121;-62
2023/01/05 07:53:39;;;;;;;36.33;28.42;;;;;;;;;;10272516;28;20069;-62
2023/01/05 07:58:41;;;;;;;41.00;29.95;;;;;;;;;;10277396;28;20095;-62
2023/01/05 08:03:39;;;;;;;33.25;26.20;;;;;;;;;;10268891;28;20071;-60
2023/01/05 08:08:38;;;;;;;30.77;25.75;;;;;;;;;;10270965;28;20080;-62
2023/01/05 08:18:54;;;;;;;33.53;26.80;;;;;;;;;;10308524;28;20077;-61
2023/01/05 08:23:53;;;;;;;34.75;26.83;;;;;;;;;;10306126;28;20351;-62
2023/01/05 08:28:52;;;;;;;48.22;42.13;;;;;;;;;;10277960;28;20095;-63
2023/01/05 08:33:51;;;;;;;35.90;27.15;;;;;;;;;;10267787;28;20056;-61
2023/01/05 08:38:51;;;;;;;34.75;27.80;;;;;;;;;;10285710;28;20063;-61
2023/01/05 08:43:49;;;;;;;34.35;27.52;;;;;;;;;;10263248;28;20079;-62
2023/01/05 08:48:50;;;;;;;41.75;33.95;;;;;;;;;;10271615;28;20081;-62
2023/01/05 08:53:48;;;;;;;43.17;35.00;;;;;;;;;;10269353;28;20489;-63
2023/01/05 08:58:47;;;;;;;37.33;28.42;;;;;;;;;;10275902;28;20084;-62
2023/01/05 09:03:45;;;;;;;40.20;30.23;;;;;;;;;;10264252;28;20064;-64
2023/01/05 09:08:45;;;;;;;35.10;27.27;;;;;;;;;;10285728;28;20106;-63
2023/01/05 09:13:45;;;;;;;35.22;28.02;;;;;;;;;;10306499;28;20136;-63
2023/01/05 09:18:44;;;;;;;31.65;26.48;;;;;;;;;;10276760;28;20041;-64
2023/01/05 09:23:42;;;;;;;34.85;28.38;;;;;;;;;;10285583;28;20399;-65
2023/01/05 09:28:42;;;;;;;36.38;26.83;;;;;;;;;;10287883;28;20631;-64
2023/01/05 09:33:41;;;;;;;36.58;29.58;;;;;;;;;;10305814;28;20512;-64
2023/01/05 09:38:39;;;;;;;37.45;29.80;;;;;;;;;;10284084;28;20063;-65
2023/01/05 09:43:46;;;;;;;40.83;29.30;;;;;;;;;;10289029;28;20040;-65
2023/01/05 09:48:46;;;;;;;32.00;26.77;;;;;;;;;;10279359;28;20503;-63
2023/01/05 09:53:45;;;;;;;39.35;30.20;;;;;;;;;;10275441;28;20634;-64
2023/01/05 09:58:44;;;;;;;36.00;30.10;;;;;;;;;;10270423;28;20132;-64
2023/01/05 10:03:44;;;;;;;32.53;27.45;;;;;;;;;;10251713;28;20080;-64
2023/01/05 10:09:03;;;;;;;38.22;27.65;;;;;;;;;;10260415;28;20125;-63
2023/01/05 10:14:04;;;;;;;33.65;28.42;;;;;;;;;;10259290;28;20117;-63
2023/01/05 10:19:04;;;;;;;37.83;29.75;;;;;;;;;;10251196;28;20156;-63
2023/01/05 10:24:10;;;;;;;32.72;26.33;;;;;;;;;;10251689;28;20148;-64
2023/01/05 10:29:10;;;;;;;34.30;25.88;;;;;;;;;;10249236;28;20449;-64
2023/01/05 10:34:14;;;;;;;29.50;22.67;;;;;;;;;;10261678;28;20529;-63
2023/01/05 10:39:18;;;;;;;26.33;21.17;;;;;;;;;;10258385;28;20086;-64
2023/01/05 10:44:40;;;;;;;26.40;19.73;;;;;;;;;;10251705;28;20064;-66
2023/01/05 10:49:41;;;;;;;24.00;20.15;;;;;;;;;;10258712;28;20121;-63
2023/01/05 10:54:40;;;;;;;26.58;21.50;;;;;;;;;;10261817;28;20121;-64
2023/01/05 10:59:53;;;;;;;38.03;22.45;;;;;;;;;;10271229;28;20438;-63
2023/01/05 11:04:53;;;;;;;25.83;20.27;;;;;;;;;;10256239;28;20060;-65
2023/01/05 11:09:51;;;;;;;29.95;21.00;;;;;;;;;;10254870;28;20145;-65
2023/01/05 11:14:51;;;;;;;33.80;22.52;;;;;;;;;;10283902;28;20052;-64
2023/01/05 11:19:57;;;;;;;23.52;18.92;;;;;;;;;;10278221;28;20077;-63
2023/01/05 11:25:12;;;;;;;26.95;18.95;;;;;;;;;;10264074;28;20067;-64
2023/01/05 11:30:23;;;;;;;22.70;18.10;;;;;;;;;;10253015;28;20144;-64
2023/01/05 11:35:31;;;;;;;31.48;20.27;;;;;;;;;;10282162;28;20504;-64
2023/01/05 11:40:31;;;;;;;18.88;16.52;;;;;;;;;;10264908;28;20418;-65
2023/01/05 11:45:35;;;;;;;23.63;16.90;;;;;;;;;;10267233;28;20061;-64
2023/01/05 11:50:42;;;;;;;23.80;20.25;;;;;;;;;;10261841;28;20061;-62
2023/01/05 11:55:40;;;;;;;22.77;17.13;;;;;;;;;;10263404;28;20085;-63
2023/01/05 12:00:50;;;;;;;19.55;15.82;;;;;;;;;;10268539;28;20117;-64
2023/01/05 12:05:51;;;;;;;22.70;18.52;;;;;;;;;;10273485;28;20115;-71
2023/01/05 12:11:03;;;;;;;17.73;14.13;;;;;;;;;;10268085;28;20068;-62
2023/01/05 12:16:10;;;;;;;22.92;16.52;;;;;;;;;;10262155;28;20438;-61
2023/01/05 12:21:13;;;;;;;17.58;12.98;;;;;;;;;;10266964;28;20175;-62
2023/01/05 12:26:18;;;;;;;18.73;14.50;;;;;;;;;;10292666;28;20123;-62
2023/01/05 12:31:16;;;;;;;;;;;;;;;;;;10282985;28;20069;-62
2023/01/05 12:36:41;;;;;;;17.88;13.15;;;;;;;;;;10261878;28;19964;-62
2023/01/05 12:41:48;;;;;;;16.60;10.52;;;;;;;;;;10269186;28;20407;-60
2023/01/05 12:46:52;;;;;;;15.57;12.23;;;;;;;;;;10263938;28;20065;-62
2023/01/05 12:51:55;;;;;;;17.70;12.57;;;;;;;;;;10264069;28;20490;-63
2023/01/05 12:57:01;;;;;;;14.75;10.48;;;;;;;;;;10268018;28;20140;-62
2023/01/05 13:02:04;;;;;;;10.77;8.80;;;;;;;;;;10270829;28;20060;-62
2023/01/05 13:07:06;;;;;;;14.93;9.05;;;;;;;;;;10272481;28;20096;-63
2023/01/05 13:12:06;;;;;;;16.65;10.18;;;;;;;;;;10272372;28;20061;-63
2023/01/05 13:17:06;;;;;;;14.27;10.18;;;;;;;;;;10272217;28;20052;-61
2023/01/05 13:22:09;;;;;;;10.02;8.85;;;;;;;;;;10262631;28;20395;-63
2023/01/05 13:27:09;;;;;;;12.35;8.70;;;;;;;;;;10264258;28;20068;-63
2023/01/05 13:32:25;;;;;;;13.20;9.65;;;;;;;;;;10264916;28;20091;-61
2023/01/05 13:37:38;;;;;;;14.90;10.73;;;;;;;;;;10270211;28;20144;-63
2023/01/05 13:42:54;;;;;;;15.80;12.57;;;;;;;;;;10263083;28;20080;-61
2023/01/05 13:48:04;;;;;;;9.65;8.52;;;;;;;;;;10263799;28;20095;-61
2023/01/05 13:53:11;;;;;;;13.07;10.57;;;;;;;;;;10255608;28;20094;-62
2023/01/05 13:58:22;;;;;;;10.75;9.10;;;;;;;;;;10265393;28;20052;-63
2023/01/05 14:03:25;;;;;;;13.30;9.13;;;;;;;;;;10276524;28;20119;-63
2023/01/05 14:08:26;;;;;;;13.20;10.73;;;;;;;;;;10288637;28;20060;-62
2023/01/05 14:13:39;;;;;;;13.52;11.25;;;;;;;;;;10268400;28;20080;-63
2023/01/05 14:18:52;;;;;;;11.50;10.30;;;;;;;;;;10282622;28;20163;-61
2023/01/05 14:23:56;;;;;;;21.35;16.73;;;;;;;;;;10274907;28;20419;-62
2023/01/05 14:28:55;;;;;;;18.73;16.60;;;;;;;;;;10264099;28;20063;-61
2023/01/05 14:33:59;;;;;;;22.30;19.23;;;;;;;;;;10270720;28;20145;-62
2023/01/05 14:38:58;;;;;;;14.70;13.23;;;;;;;;;;10297026;28;20549;-62
2023/01/05 14:43:58;;;;;;;10.52;8.02;;;;;;;;;;10299728;28;20060;-62
2023/01/05 14:49:03;;;;;;;17.55;13.18;;;;;;;;;;10293723;28;20041;-63
2023/01/05 14:54:02;;;;;;;12.40;10.60;;;;;;;;;;10312498;28;20084;-62
2023/01/05 14:59:18;;;;;;;12.27;10.15;;;;;;;;;;10315707;28;20513;-62
2023/01/05 15:04:20;;;;;;;16.50;10.60;;;;;;;;;;10313589;28;20075;-62
2023/01/05 15:09:27;;;;;;;11.13;9.43;;;;;;;;;;10312602;28;20094;-62
2023/01/05 15:14:37;;;;;;;16.60;14.23;;;;;;;;;;10312702;28;20085;-63
2023/01/05 15:19:51;;;;;;;22.65;18.15;;;;;;;;;;10310440;28;20465;-62
2023/01/05 15:25:09;;;;;;;19.40;16.58;;;;;;;;;;10311808;28;20171;-62
2023/01/05 15:30:16;;;;;;;14.20;11.27;;;;;;;;;;10285695;28;20095;-62
2023/01/05 15:35:17;;;;;;;22.95;18.42;;;;;;;;;;10286480;28;20449;-62
2023/01/05 15:40:29;;;;;;;18.73;15.82;;;;;;;;;;10301106;28;20032;-62
2023/01/05 15:45:29;;;;;;;29.23;21.08;;;;;;;;;;10310039;28;20040;-62
2023/01/05 15:50:31;;;;;;;23.35;18.65;;;;;;;;;;10310173;28;20555;-60
2023/01/05 15:55:30;;;;;;;16.33;13.10;;;;;;;;;;10287854;28;20084;-60
2023/01/05 16:00:29;;;;;;;21.92;14.57;;;;;;;;;;10295158;28;20409;-60
2023/01/05 16:05:31;;;;;;;26.35;19.48;;;;;;;;;;10278559;28;20041;-60
2023/01/05 16:10:31;;;;;;;18.27;16.42;;;;;;;;;;10287170;28;20068;-60
2023/01/05 16:15:31;;;;;;;15.18;11.70;;;;;;;;;;10297610;28;20036;-60
2023/01/05 16:20:31;;;;;;;19.92;12.80;;;;;;;;;;10269656;28;20068;-61
2023/01/05 16:25:30;;;;;;;30.88;26.80;;;;;;;;;;10291786;28;20041;-60
2023/01/05 16:30:30;;;;;;;27.30;21.45;;;;;;;;;;10274647;28;20072;-60
2023/01/05 16:35:34;;;;;;;29.73;21.45;;;;;;;;;;10260342;28;20061;-60
2023/01/05 16:40:33;;;;;;;28.33;20.23;;;;;;;;;;10251378;28;20433;-60
2023/01/05 16:45:33;;;;;;;52.95;45.50;;;;;;;;;;10256485;28;20482;-61
2023/01/05 16:50:58;;;;;;;24.88;19.00;;;;;;;;;;10283376;28;20120;-61
2023/01/05 16:55:57;;;;;;;53.67;35.60;;;;;;;;;;10284653;28;20163;-62
2023/01/05 17:01:14;;;;;;;47.00;30.63;;;;;;;;;;10303676;28;20082;-61
2023/01/05 17:06:17;;;;;;;34.33;26.00;;;;;;;;;;10270448;28;20076;-60
2023/01/05 17:11:17;;;;;;;22.15;16.73;;;;;;;;;;10280908;28;20080;-61
2023/01/05 17:16:16;;;;;;;15.60;12.05;;;;;;;;;;10286734;28;20060;-60
2023/01/05 17:21:15;;;;;;;22.13;16.90;;;;;;;;;;10292670;28;20068;-62
2023/01/05 17:26:15;;;;;;;21.73;16.55;;;;;;;;;;10300158;28;20492;-61
2023/01/05 17:31:15;;;;;;;28.83;21.48;;;;;;;;;;10283011;28;20080;-61
2023/01/05 17:36:13;;;;;;;22.90;18.42;;;;;;;;;;10290163;28;20075;-60
2023/01/05 17:41:13;;;;;;;20.40;17.63;;;;;;;;;;10281452;28;20159;-61
2023/01/05 17:46:17;;;;;;;22.08;19.02;;;;;;;;;;10279006;28;20064;-61
2023/01/05 17:51:15;;;;;;;20.85;17.45;;;;;;;;;;10265728;28;20083;-60
2023/01/05 17:56:13;;;;;;;18.30;15.95;;;;;;;;;;10274078;28;20095;-60
2023/01/05 18:01:16;;;;;;;12.68;11.00;;;;;;;;;;10275422;28;20151;-60
2023/01/05 18:06:18;;;;;;;10.95;9.68;;;;;;;;;;10267696;28;20804;-62
2023/01/05 18:11:16;;;;;;;22.52;19.25;;;;;;;;;;10273972;28;20084;-62
2023/01/05 18:16:16;;;;;;;22.70;16.65;;;;;;;;;;10269245;28;20445;-62
2023/01/05 18:21:14;;;;;;;12.32;10.13;;;;;;;;;;10264674;28;20060;-62
2023/01/05 18:26:12;;;;;;;9.77;8.75;;;;;;;;;;10278856;28;20068;-62
2023/01/05 18:31:11;;;;;;;12.82;10.65;;;;;;;;;;10281869;28;20082;-62
2023/01/05 18:36:12;;;;;;;15.77;12.68;;;;;;;;;;10278089;28;20060;-62
2023/01/05 18:41:11;;;;;;;38.22;28.40;;;;;;;;;;10277711;28;20079;-62
2023/01/05 18:46:09;;;;;;;17.30;14.27;;;;;;;;;;10277605;28;20076;-62
2023/01/05 18:51:09;;;;;;;21.63;17.80;;;;;;;;;;10292336;28;20107;-61
2023/01/05 18:56:09;;;;;;;16.17;11.02;;;;;;;;;;10271907;28;20089;-62
2023/01/05 19:01:08;;;;;;;12.68;10.02;;;;;;;;;;10285544;28;20092;-62
2023/01/05 19:06:07;;;;;;;13.50;10.40;;;;;;;;;;10266095;28;20068;-62
2023/01/05 19:11:14;;;;;;;11.25;8.90;;;;;;;;;;10292214;28;20084;-62
2023/01/05 19:16:13;;;;;;;19.95;13.48;;;;;;;;;;10290350;28;20079;-62
2023/01/05 19:21:12;;;;;;;14.27;11.13;;;;;;;;;;10301439;28;20065;-63
2023/01/05 19:26:10;;;;;;;22.58;16.33;;;;;;;;;;10290228;28;20117;-63
2023/01/05 19:31:11;;;;;;;16.80;12.48;;;;;;;;;;10282222;28;20068;-62
2023/01/05 19:36:10;;;;;;;18.65;14.57;;;;;;;;;;10291991;28;20100;-61
2023/01/05 19:41:09;;;;;;;19.33;13.23;;;;;;;;;;10275007;28;20148;-60
2023/01/05 19:46:09;;;;;;;17.10;13.38;;;;;;;;;;10304169;28;20473;-61
2023/01/05 19:51:11;;;;;;;17.00;13.25;;;;;;;;;;10298044;28;20071;-61
2023/01/05 19:56:10;;;;;;;26.35;17.80;;;;;;;;;;10299467;28;20540;-60
2023/01/05 20:01:09;;;;;;;19.70;12.82;;;;;;;;;;10291286;28;20755;-61
2023/01/05 20:06:10;;;;;;;16.38;11.02;;;;;;;;;;10275943;28;20076;-61
2023/01/05 20:11:10;;;;;;;16.88;12.40;;;;;;;;;;10296175;28;20116;-61
2023/01/05 20:16:09;;;;;;;14.00;10.43;;;;;;;;;;10278738;28;20068;-61
2023/01/05 20:21:12;;;;;;;11.90;9.95;;;;;;;;;;10276216;28;20459;-62
2023/01/05 20:26:11;;;;;;;14.13;10.45;;;;;;;;;;10277545;28;20179;-62
2023/01/05 20:31:15;;;;;;;13.13;10.00;;;;;;;;;;10259443;28;20139;-62
2023/01/05 20:36:14;;;;;;;13.97;9.57;;;;;;;;;;10275787;28;20574;-62
2023/01/05 20:41:13;;;;;;;15.15;10.05;;;;;;;;;;10269885;28;20121;-61
2023/01/05 20:46:12;;;;;;;11.52;9.40;;;;;;;;;;10264640;28;20128;-61
2023/01/05 20:51:11;;;;;;;17.27;12.43;;;;;;;;;;10281140;28;20064;-62
2023/01/05 20:56:12;;;;;;;15.52;10.65;;;;;;;;;;10289399;28;20075;-61
2023/01/05 21:01:11;;;;;;;15.73;12.98;;;;;;;;;;10294825;28;20435;-61
2023/01/05 21:06:10;;;;;;;10.90;9.68;;;;;;;;;;10295672;28;20473;-61
2023/01/05 21:11:14;;;;;;;17.60;14.55;;;;;;;;;;10299763;28;20075;-61
2023/01/05 21:16:15;;;;;;;10.55;9.15;;;;;;;;;;10277483;28;20427;-61
2023/01/05 21:21:15;;;;;;;11.50;9.60;;;;;;;;;;10276033;28;20071;-61
2023/01/05 21:26:13;;;;;;;17.75;12.80;;;;;;;;;;10277624;28;20111;-62
2023/01/05 21:31:14;;;;;;;11.55;8.88;;;;;;;;;;10293109;28;20088;-62
2023/01/05 21:36:15;;;;;;;11.20;8.63;;;;;;;;;;10304604;28;20099;-63
2023/01/05 21:41:13;;;;;;;21.05;14.88;;;;;;;;;;10265816;28;20477;-62
2023/01/05 21:46:11;;;;;;;20.83;13.07;;;;;;;;;;10268316;28;20060;-62
2023/01/05 21:56:43;;;;;;;52.22;27.15;;;;;;;;;;10198992;28;20080;-62
2023/01/05 22:01:41;;;;;;;58.08;30.80;;;;;;;;;;10252805;28;20556;-62
2023/01/05 22:06:39;;;;;;;36.67;22.42;;;;;;;;;;10283450;28;20087;-62
2023/01/05 22:11:38;;;;;;;29.15;17.52;;;;;;;;;;10270494;28;20079;-61
2023/01/05 22:16:37;;;;;;;39.45;22.27;;;;;;;;;;10289080;28;20486;-61
2023/01/05 22:21:36;;;;;;;50.00;25.45;;;;;;;;;;10268735;28;20454;-61
2023/01/05 22:26:34;;;;;;;41.35;23.05;;;;;;;;;;10260400;28;20160;-61
2023/01/05 22:31:34;;;;;;;57.67;28.13;;;;;;;;;;10264373;28;20460;-61
2023/01/05 22:36:33;;;;;;;40.17;21.88;;;;;;;;;;10276965;28;20103;-60
2023/01/05 22:41:32;;;;;;;19.95;12.27;;;;;;;;;;10266308;28;20069;-61
2023/01/05 22:46:31;;;;;;;51.95;28.27;;;;;;;;;;10266846;28;20061;-61
2023/01/05 22:51:30;;;;;;;48.17;22.95;;;;;;;;;;10260291;28;20200;-62
2023/01/05 22:56:30;;;;;;;13.77;9.70;;;;;;;;;;10275796;28;20137;-61
2023/01/05 23:01:30;;;;;;;13.45;10.88;;;;;;;;;;10287206;28;20458;-61
2023/01/05 23:06:28;;;;;;;12.57;9.50;;;;;;;;;;10263277;28;20088;-61
2023/01/05 23:11:27;;;;;;;13.18;9.90;;;;;;;;;;10267733;28;20037;-62
2023/01/05 23:16:27;;;;;;;13.43;9.60;;;;;;;;;;10273657;28;20499;-63
2023/01/05 23:21:25;;;;;;;10.05;8.35;;;;;;;;;;10297404;28;20064;-62
2023/01/05 23:26:25;;;;;;;10.75;9.63;;;;;;;;;;10312709;28;20087;-62
2023/01/05 23:31:23;;;;;;;11.98;8.98;;;;;;;;;;10295701;28;20108;-61
2023/01/05 23:36:23;;;;;;;12.90;9.95;;;;;;;;;;10281449;28;20128;-62
2023/01/05 23:41:21;;;;;;;15.60;11.05;;;;;;;;;;10266251;28;20064;-62
2023/01/05 23:46:20;;;;;;;13.85;10.50;;;;;;;;;;10282214;28;20068;-62
2023/01/05 23:51:19;;;;;;;12.80;9.38;;;;;;;;;;10312172;28;20440;-62
2023/01/05 23:56:19;;;;;;;12.93;10.40;;;;;;;;;;10311566;28;20072;-62
